Time;durP1;ratioP1;P1;durP2;ratioP2;P2;SDS_P1;SDS_P2;PMS_P1;PMS_P2;Temp;Humidity;BMP_temperature;BMP_pressure;BME280_temperature;BME280_humidity;BME280_pressure;Samples;Min_cycle;Max_cycle;Signal;HPM_P1;HPM_P2
2022/03/27 00:01:51;;;;;;;11.20;7.83;;;8.40;99.90;;;;;;5061255;28;20265;-77
2022/03/27 00:04:16;;;;;;;12.83;8.10;;;8.40;99.90;;;;;;5059273;28;20171;-77
2022/03/27 00:06:42;;;;;;;11.63;7.37;;;8.40;99.90;;;;;;5057131;28;20175;-76
2022/03/27 00:09:08;;;;;;;12.83;7.90;;;8.30;99.90;;;;;;5060557;28;20175;-76
2022/03/27 00:11:34;;;;;;;11.40;7.80;;;8.30;99.90;;;;;;5060140;28;20230;-77
2022/03/27 00:14:03;;;;;;;12.17;7.77;;;8.40;99.90;;;;;;5058135;28;20210;-77
2022/03/27 00:16:30;;;;;;;10.40;7.23;;;8.40;99.90;;;;;;5059427;28;20187;-76
2022/03/27 00:18:55;;;;;;;8.80;6.63;;;8.30;99.90;;;;;;5058684;28;20188;-77
2022/03/27 00:21:22;;;;;;;11.40;8.00;;;8.30;99.90;;;;;;5058818;28;20199;-76
2022/03/27 00:23:48;;;;;;;9.13;7.20;;;8.30;99.90;;;;;;5057698;28;20186;-77
2022/03/27 00:26:15;;;;;;;11.20;7.37;;;8.30;99.90;;;;;;5059141;28;20237;-77
2022/03/27 00:28:40;;;;;;;13.00;7.47;;;8.30;99.90;;;;;;5057635;28;20207;-77
2022/03/27 00:31:08;;;;;;;10.50;8.17;;;8.30;99.90;;;;;;5057156;28;20626;-76
2022/03/27 00:33:35;;;;;;;10.10;6.87;;;8.30;99.90;;;;;;5057857;28;20187;-77
2022/03/27 00:36:02;;;;;;;9.03;6.90;;;8.30;99.90;;;;;;5057597;28;20274;-76
2022/03/27 00:38:29;;;;;;;12.90;7.73;;;8.30;99.90;;;;;;5057573;28;20186;-76
2022/03/27 00:40:55;;;;;;;8.20;6.70;;;8.20;99.90;;;;;;5056953;28;20180;-77
2022/03/27 00:43:22;;;;;;;13.10;7.47;;;8.20;99.90;;;;;;5058769;28;20222;-77
2022/03/27 00:45:48;;;;;;;11.87;7.60;;;8.20;99.90;;;;;;5058460;28;20171;-76
2022/03/27 00:48:14;;;;;;;14.63;7.37;;;8.20;99.90;;;;;;5058721;28;20202;-77
2022/03/27 00:50:41;;;;;;;12.57;7.10;;;8.20;99.90;;;;;;5057833;28;20265;-77
2022/03/27 00:53:07;;;;;;;12.13;7.43;;;8.20;99.90;;;;;;5057160;28;20176;-76
2022/03/27 00:55:33;;;;;;;12.00;8.03;;;8.10;99.90;;;;;;5057141;28;20184;-76
2022/03/27 00:57:58;;;;;;;12.77;8.40;;;8.20;99.90;;;;;;5059228;28;20627;-78
2022/03/27 01:00:39;;;;;;;10.90;6.90;;;8.10;99.90;;;;;;5058168;28;20210;-76
2022/03/27 01:03:05;;;;;;;9.03;6.97;;;8.10;99.90;;;;;;5057044;28;20586;-76
2022/03/27 01:05:32;;;;;;;13.43;7.20;;;8.10;99.90;;;;;;5056921;28;20708;-76
2022/03/27 01:08:01;;;;;;;8.97;6.93;;;8.10;99.90;;;;;;5057037;28;20576;-76
2022/03/27 01:10:26;;;;;;;10.43;7.67;;;8.10;99.90;;;;;;5057199;28;20639;-76
2022/03/27 01:12:52;;;;;;;11.43;7.07;;;8.10;99.90;;;;;;5058029;28;20222;-77
2022/03/27 01:15:29;;;;;;;11.33;7.63;;;8.00;99.90;;;;;;5058272;28;20172;-76
2022/03/27 01:17:55;;;;;;;11.20;7.53;;;8.00;99.90;;;;;;5057847;28;20171;-76
2022/03/27 01:20:41;;;;;;;12.90;7.53;;;8.00;99.90;;;;;;5057912;28;20175;-77
2022/03/27 01:23:09;;;;;;;9.67;6.83;;;7.90;99.90;;;;;;5056805;28;20546;-77
2022/03/27 01:25:36;;;;;;;9.67;6.83;;;7.80;99.90;;;;;;5058848;28;20713;-76
2022/03/27 01:28:03;;;;;;;11.50;7.07;;;7.80;99.90;;;;;;5057991;28;20191;-77
2022/03/27 01:30:28;;;;;;;10.27;7.40;;;7.70;99.90;;;;;;5056577;28;20530;-78
2022/03/27 01:32:55;;;;;;;9.30;7.33;;;7.70;99.90;;;;;;5056689;28;20217;-76
2022/03/27 01:35:21;;;;;;;11.83;7.63;;;7.70;99.90;;;;;;5058222;28;20168;-77
2022/03/27 01:37:48;;;;;;;13.27;7.30;;;7.70;99.90;;;;;;5058445;28;20174;-77
2022/03/27 01:40:14;;;;;;;8.57;6.93;;;7.60;99.90;;;;;;5056344;28;20172;-76
2022/03/27 01:42:40;;;;;;;11.73;7.47;;;7.60;99.90;;;;;;5058253;28;20198;-76
2022/03/27 01:45:06;;;;;;;9.13;6.90;;;7.60;99.90;;;;;;5056938;28;20187;-76
2022/03/27 01:47:32;;;;;;;10.87;6.60;;;7.60;99.90;;;;;;5057053;28;20207;-76
2022/03/27 01:50:00;;;;;;;11.63;8.07;;;7.50;99.90;;;;;;5056570;28;20220;-76
2022/03/27 01:52:25;;;;;;;9.37;6.90;;;7.50;99.90;;;;;;5056412;28;20230;-76
2022/03/27 01:54:51;;;;;;;8.87;6.90;;;7.50;99.90;;;;;;5058095;28;20171;-76
2022/03/27 01:57:17;;;;;;;11.17;7.17;;;7.50;99.90;;;;;;5058142;28;20202;-76
2022/03/27 01:59:42;;;;;;;9.60;6.23;;;7.50;99.90;;;;;;5056223;28;20249;-76
2022/03/27 02:02:08;;;;;;;8.53;6.53;;;7.40;99.90;;;;;;5057252;28;20268;-76
2022/03/27 02:04:34;;;;;;;8.47;7.20;;;7.40;99.90;;;;;;5068512;23;20228;-83
2022/03/27 02:07:00;;;;;;;8.50;6.10;;;7.40;99.90;;;;;;5035297;28;20179;-83
2022/03/27 02:09:25;;;;;;;12.27;7.43;;;7.30;99.90;;;;;;5035279;28;20185;-83
2022/03/27 02:11:51;;;;;;;12.70;7.37;;;7.30;99.90;;;;;;5033441;28;20203;-84
2022/03/27 02:14:16;;;;;;;12.73;7.47;;;7.30;99.90;;;;;;5033651;28;20204;-82
2022/03/27 02:16:42;;;;;;;9.80;7.37;;;7.30;99.90;;;;;;5034788;28;20562;-84
2022/03/27 02:19:09;;;;;;;9.87;7.07;;;7.30;99.90;;;;;;5034164;28;20231;-84
2022/03/27 02:21:39;;;;;;;11.13;7.50;;;7.40;99.90;;;;;;5035355;28;20172;-84
2022/03/27 02:24:05;;;;;;;9.50;7.90;;;7.40;99.90;;;;;;5034877;28;20199;-84
2022/03/27 02:26:32;;;;;;;8.53;6.47;;;7.40;99.90;;;;;;5034744;28;20247;-83
2022/03/27 02:28:58;;;;;;;10.77;7.33;;;7.40;99.90;;;;;;5034035;28;20204;-83
2022/03/27 02:31:23;;;;;;;9.67;6.87;;;7.40;99.90;;;;;;5032413;28;20607;-84
2022/03/27 02:33:49;;;;;;;8.53;7.00;;;7.40;99.90;;;;;;5033075;28;20235;-83
2022/03/27 02:36:16;;;;;;;12.70;7.47;;;7.40;99.90;;;;;;5034067;28;20168;-84
2022/03/27 02:38:43;;;;;;;12.63;7.83;;;7.20;99.90;;;;;;5033720;28;20176;-83
2022/03/27 02:41:09;;;;;;;10.07;7.40;;;7.30;99.90;;;;;;5034208;28;20176;-83
2022/03/27 02:43:38;;;;;;;11.33;7.20;;;7.30;99.90;;;;;;5032492;28;20203;-84
2022/03/27 02:46:05;;;;;;;11.40;7.30;;;7.30;99.90;;;;;;5032663;28;20180;-83
2022/03/27 02:48:30;;;;;;;10.37;7.80;;;7.30;99.90;;;;;;5032891;28;20199;-84
2022/03/27 02:50:56;;;;;;;11.17;7.93;;;7.30;99.90;;;;;;5032718;28;20532;-84
2022/03/27 02:53:22;;;;;;;10.33;7.60;;;7.50;99.90;;;;;;5032565;28;20186;-83
2022/03/27 02:55:47;;;;;;;10.90;7.47;;;7.30;99.90;;;;;;5032987;28;20191;-84
2022/03/27 02:58:13;;;;;;;8.27;7.37;;;7.30;99.90;;;;;;5033012;28;20607;-84
2022/03/27 03:00:41;;;;;;;11.10;7.37;;;7.20;99.90;;;;;;5032737;28;20321;-84
2022/03/27 03:03:10;;;;;;;12.73;7.47;;;7.20;99.90;;;;;;5034317;28;20172;-84
2022/03/27 03:05:40;;;;;;;11.20;7.40;;;7.20;99.90;;;;;;5033025;28;20537;-84
2022/03/27 03:08:12;;;;;;;13.67;8.60;;;7.20;99.90;;;;;;5032636;28;20192;-83
2022/03/27 03:10:39;;;;;;;12.90;8.90;;;7.20;99.90;;;;;;5013061;28;20221;-83
2022/03/27 03:13:06;;;;;;;13.93;8.83;;;7.30;99.90;;;;;;5012736;28;20656;-84
2022/03/27 03:15:32;;;;;;;13.30;8.83;;;7.30;99.90;;;;;;5012815;28;20219;-83
2022/03/27 03:17:57;;;;;;;10.50;8.93;;;7.30;99.90;;;;;;5012841;28;20611;-83
2022/03/27 03:20:24;;;;;;;14.83;9.77;;;7.30;99.90;;;;;;5033505;28;20709;-84
2022/03/27 03:22:50;;;;;;;12.73;9.43;;;7.30;99.90;;;;;;5032981;28;20188;-84
2022/03/27 03:25:15;;;;;;;13.10;9.47;;;7.30;99.90;;;;;;5033602;28;20559;-84
2022/03/27 03:27:41;;;;;;;13.27;9.90;;;7.30;99.90;;;;;;5033885;28;20204;-84
2022/03/27 03:30:07;;;;;;;13.67;9.67;;;7.40;99.90;;;;;;5032945;28;20616;-84
2022/03/27 03:32:36;;;;;;;12.17;9.10;;;7.30;99.90;;;;;;5032618;28;20184;-84
2022/03/27 03:35:03;;;;;;;11.17;9.03;;;7.30;99.90;;;;;;5034138;28;20207;-84
2022/03/27 03:37:29;;;;;;;16.07;11.53;;;7.30;99.90;;;;;;5033471;28;20180;-84
2022/03/27 03:39:54;;;;;;;15.87;11.37;;;7.30;99.90;;;;;;5032608;28;20530;-83
2022/03/27 03:42:20;;;;;;;14.13;11.27;;;7.40;99.90;;;;;;5036014;28;20252;-84
2022/03/27 03:44:46;;;;;;;16.80;12.23;;;7.40;99.90;;;;;;5037601;28;20204;-84
2022/03/27 03:47:11;;;;;;;15.57;11.17;;;7.40;99.90;;;;;;5037314;28;20236;-84
2022/03/27 03:49:38;;;;;;;14.53;11.50;;;7.40;99.90;;;;;;5037753;28;20176;-83
2022/03/27 03:52:04;;;;;;;15.63;11.93;;;7.50;99.90;;;;;;5038725;28;20215;-84
2022/03/27 03:54:30;;;;;;;16.10;11.87;;;7.40;99.90;;;;;;5038148;28;20204;-84
2022/03/27 03:56:55;;;;;;;15.43;11.33;;;7.40;99.90;;;;;;5037481;28;20238;-84
2022/03/27 03:59:21;;;;;;;15.00;11.50;;;7.40;99.90;;;;;;5037233;28;20175;-84
2022/03/27 04:01:46;;;;;;;13.80;12.40;;;7.30;99.90;;;;;;5040881;28;20206;-84
2022/03/27 04:04:12;;;;;;;19.43;13.40;;;7.40;99.90;;;;;;5043676;28;20208;-84
2022/03/27 04:06:37;;;;;;;18.60;14.57;;;7.40;99.90;;;;;;5042637;28;20179;-84
2022/03/27 04:09:03;;;;;;;19.23;15.00;;;7.50;99.90;;;;;;5045340;28;20333;-85
2022/03/27 04:11:28;;;;;;;21.90;17.13;;;7.50;99.90;;;;;;5046710;28;20310;-84
2022/03/27 04:13:54;;;;;;;25.03;19.40;;;7.60;99.90;;;;;;5044927;28;20196;-84
2022/03/27 04:16:19;;;;;;;24.90;19.63;;;7.70;99.90;;;;;;5044628;28;20190;-84
2022/03/27 04:18:46;;;;;;;26.03;19.13;;;7.80;99.90;;;;;;5049266;28;20176;-84
2022/03/27 04:21:11;;;;;;;32.00;22.23;;;7.80;99.90;;;;;;5054375;28;20176;-84
2022/03/27 04:23:37;;;;;;;32.90;23.10;;;7.90;99.90;;;;;;5049556;28;20208;-83
2022/03/27 04:26:03;;;;;;;35.13;23.87;;;8.00;99.90;;;;;;5038611;28;20180;-83
2022/03/27 04:28:29;;;;;;;32.73;24.13;;;8.00;99.90;;;;;;5037775;28;20195;-84
2022/03/27 04:30:55;;;;;;;35.73;24.60;;;8.10;99.90;;;;;;5039798;28;20656;-84
2022/03/27 04:33:21;;;;;;;38.93;25.97;;;8.10;99.90;;;;;;5038305;28;20192;-84
2022/03/27 04:35:46;;;;;;;37.47;25.13;;;8.20;99.90;;;;;;5037616;28;20186;-84
2022/03/27 04:38:12;;;;;;;39.23;25.23;;;8.20;99.90;;;;;;5040808;28;20181;-84
2022/03/27 04:40:38;;;;;;;39.73;26.50;;;8.30;99.90;;;;;;5040408;28;20678;-84
2022/03/27 04:43:05;;;;;;;38.93;26.27;;;8.30;99.90;;;;;;5042590;28;20242;-84
2022/03/27 04:45:31;;;;;;;34.67;26.30;;;8.30;99.90;;;;;;5041789;28;20230;-84
2022/03/27 04:47:57;;;;;;;40.97;25.93;;;8.40;99.90;;;;;;5041616;28;20204;-84
2022/03/27 04:50:23;;;;;;;40.20;25.83;;;8.40;99.90;;;;;;5040599;28;20581;-84
2022/03/27 04:52:48;;;;;;;38.47;26.00;;;8.40;99.90;;;;;;5044909;28;20168;-84
2022/03/27 04:55:14;;;;;;;37.17;24.60;;;8.40;99.90;;;;;;5044614;28;20195;-85
2022/03/27 04:57:44;;;;;;;36.20;24.77;;;8.40;99.90;;;;;;5043024;28;20172;-85
2022/03/27 05:00:11;;;;;;;37.13;25.30;;;8.50;99.90;;;;;;5042324;28;20199;-85
2022/03/27 05:02:38;;;;;;;37.57;25.07;;;8.50;99.90;;;;;;5044444;28;20774;-85
2022/03/27 05:05:05;;;;;;;36.70;24.77;;;8.50;99.90;;;;;;5042771;28;20204;-85
2022/03/27 05:07:31;;;;;;;39.10;25.97;;;8.50;99.90;;;;;;5044529;28;20245;-85
2022/03/27 05:09:57;;;;;;;38.00;26.43;;;8.50;99.90;;;;;;5043761;28;20192;-85
2022/03/27 05:12:22;;;;;;;37.53;26.43;;;8.50;99.90;;;;;;5044490;28;20173;-86
2022/03/27 05:14:48;;;;;;;41.80;27.03;;;8.50;99.90;;;;;;5047177;28;20563;-85
2022/03/27 05:17:14;;;;;;;44.70;29.03;;;8.60;99.90;;;;;;5044758;28;20183;-85
2022/03/27 05:19:39;;;;;;;41.97;26.97;;;8.60;99.90;;;;;;5048278;28;20255;-85
2022/03/27 05:22:07;;;;;;;43.13;27.93;;;8.60;99.90;;;;;;5047035;28;20176;-85
2022/03/27 05:24:33;;;;;;;40.90;27.33;;;8.80;99.90;;;;;;5046790;28;20196;-85
2022/03/27 05:26:58;;;;;;;42.73;26.77;;;8.70;99.90;;;;;;5046355;28;20196;-84
2022/03/27 05:29:24;;;;;;;42.27;26.60;;;8.70;99.90;;;;;;5049801;28;20184;-84
2022/03/27 05:31:51;;;;;;;39.20;26.63;;;8.70;99.90;;;;;;5052000;28;20660;-84
2022/03/27 05:34:17;;;;;;;39.17;27.50;;;8.80;99.90;;;;;;5044643;28;20219;-84
2022/03/27 05:36:43;;;;;;;39.37;27.70;;;8.80;99.90;;;;;;5043248;28;20659;-84
2022/03/27 05:39:08;;;;;;;38.93;27.03;;;8.80;99.90;;;;;;5041046;28;20184;-84
2022/03/27 05:41:34;;;;;;;45.17;28.37;;;8.80;99.90;;;;;;5036223;28;20198;-84
2022/03/27 05:43:59;;;;;;;42.20;27.90;;;8.80;99.90;;;;;;5037270;28;20291;-83
2022/03/27 05:46:25;;;;;;;46.93;29.87;;;8.80;99.90;;;;;;5038759;28;20182;-84
2022/03/27 05:48:50;;;;;;;44.37;28.33;;;8.80;99.90;;;;;;5041164;28;20207;-84
2022/03/27 05:51:16;;;;;;;51.90;30.73;;;8.90;99.90;;;;;;5039102;28;20187;-85
2022/03/27 05:53:43;;;;;;;44.50;28.97;;;8.90;99.90;;;;;;5038611;28;20192;-84
2022/03/27 05:56:09;;;;;;;50.10;30.77;;;8.90;99.90;;;;;;5036742;28;20315;-83
2022/03/27 05:58:35;;;;;;;50.90;31.43;;;8.90;99.90;;;;;;5037495;28;20180;-84
2022/03/27 06:01:01;;;;;;;47.93;29.47;;;8.90;99.90;;;;;;5036746;28;20204;-84
2022/03/27 06:03:26;;;;;;;49.40;31.00;;;9.10;99.90;;;;;;5039671;28;20215;-85
2022/03/27 06:05:52;;;;;;;47.70;31.03;;;9.00;99.90;;;;;;5041038;28;20180;-85
2022/03/27 06:08:17;;;;;;;45.73;30.67;;;9.00;99.90;;;;;;5041703;28;20671;-85
2022/03/27 06:10:43;;;;;;;47.73;31.63;;;9.10;99.90;;;;;;5041308;28;20177;-83
2022/03/27 06:13:11;;;;;;;46.90;30.50;;;9.00;99.90;;;;;;5041529;28;20180;-84
2022/03/27 06:15:37;;;;;;;54.60;32.53;;;9.10;99.90;;;;;;5046961;28;20181;-84
2022/03/27 06:18:03;;;;;;;48.57;31.07;;;9.10;99.90;;;;;;5041720;28;20195;-84
2022/03/27 06:20:30;;;;;;;45.30;29.73;;;9.10;99.90;;;;;;5036303;28;20172;-84
2022/03/27 06:22:57;;;;;;;44.37;31.80;;;9.20;99.90;;;;;;5034964;28;20198;-84
2022/03/27 06:25:25;;;;;;;43.73;30.30;;;9.20;99.90;;;;;;5034352;28;20192;-84
2022/03/27 06:27:51;;;;;;;45.60;31.67;;;9.30;99.90;;;;;;5035396;28;20207;-84
2022/03/27 06:30:19;;;;;;;43.93;30.07;;;9.20;99.90;;;;;;5035913;28;20267;-84
2022/03/27 06:32:46;;;;;;;46.33;32.10;;;9.30;99.90;;;;;;5033889;28;20180;-83
2022/03/27 06:35:12;;;;;;;48.23;32.10;;;9.30;99.90;;;;;;5035207;28;20184;-82
2022/03/27 06:37:39;;;;;;;45.93;32.43;;;9.30;99.90;;;;;;5038185;28;20180;-84
2022/03/27 06:40:06;;;;;;;42.87;31.67;;;9.40;99.90;;;;;;5044894;28;20172;-83
2022/03/27 06:42:32;;;;;;;46.87;30.70;;;9.40;99.90;;;;;;5052216;28;20180;-83
2022/03/27 06:44:58;;;;;;;46.00;31.87;;;9.40;99.90;;;;;;5050252;28;20223;-82
2022/03/27 06:47:26;;;;;;;46.50;31.13;;;9.40;99.90;;;;;;5043396;28;20199;-85
2022/03/27 06:49:56;;;;;;;41.57;30.87;;;9.40;99.90;;;;;;5039537;28;20203;-85
2022/03/27 06:52:23;;;;;;;45.47;31.37;;;9.40;99.90;;;;;;5044486;28;20171;-85
2022/03/27 06:54:49;;;;;;;46.70;31.33;;;9.50;99.90;;;;;;5043888;28;20296;-85
2022/03/27 06:57:15;;;;;;;44.33;31.27;;;9.50;99.90;;;;;;5044838;28;20176;-85
2022/03/27 07:05:14;;;;;;;38.87;29.67;;;9.80;99.90;;;;;;5048676;28;20226;-83
2022/03/27 07:07:41;;;;;;;37.57;29.23;;;9.60;99.90;;;;;;5044387;28;20191;-82
2022/03/27 07:10:07;;;;;;;38.23;28.37;;;9.60;99.90;;;;;;5041775;28;20176;-84
2022/03/27 07:12:33;;;;;;;36.90;27.87;;;9.70;99.90;;;;;;5042572;28;20172;-84
2022/03/27 07:14:58;;;;;;;34.43;26.93;;;9.70;99.90;;;;;;5046451;28;20210;-83
2022/03/27 07:17:25;;;;;;;36.30;27.57;;;9.70;99.90;;;;;;5042539;28;20176;-83
2022/03/27 07:19:51;;;;;;;36.30;27.90;;;9.80;99.90;;;;;;5049050;28;20266;-83
2022/03/27 07:22:16;;;;;;;32.50;27.13;;;9.80;99.90;;;;;;5057372;28;20176;-83
2022/03/27 07:24:42;;;;;;;34.17;26.10;;;9.80;99.90;;;;;;5056244;28;20250;-82
2022/03/27 07:27:08;;;;;;;32.80;25.90;;;9.90;99.90;;;;;;5056789;28;20176;-83
2022/03/27 07:29:35;;;;;;;31.63;25.17;;;9.90;99.90;;;;;;5047292;28;20194;-84
2022/03/27 07:32:02;;;;;;;32.90;25.60;;;9.90;99.90;;;;;;5047396;28;20187;-84
2022/03/27 07:34:27;;;;;;;33.27;26.47;;;10.00;99.90;;;;;;5046322;28;20192;-84
2022/03/27 07:36:53;;;;;;;34.70;25.73;;;10.00;99.90;;;;;;5045315;28;20168;-83
2022/03/27 07:39:21;;;;;;;32.17;24.83;;;10.00;99.90;;;;;;5041972;28;20192;-86
2022/03/27 07:41:46;;;;;;;34.67;25.50;;;10.00;99.90;;;;;;5042432;28;20186;-84
2022/03/27 07:44:12;;;;;;;37.30;26.73;;;10.00;99.90;;;;;;5043983;28;20196;-84
2022/03/27 07:46:37;;;;;;;37.77;25.80;;;10.10;99.90;;;;;;5043402;28;20272;-83
2022/03/27 07:49:03;;;;;;;32.60;25.17;;;10.10;99.90;;;;;;5045574;28;20209;-84
2022/03/27 07:51:28;;;;;;;39.17;25.60;;;10.10;99.90;;;;;;5045198;28;20168;-84
2022/03/27 07:53:54;;;;;;;33.80;25.67;;;10.20;99.90;;;;;;5045144;28;20199;-84
2022/03/27 07:56:20;;;;;;;31.30;24.43;;;10.20;99.90;;;;;;5043551;28;20180;-84
2022/03/27 07:58:46;;;;;;;34.47;24.43;;;10.20;99.90;;;;;;5044524;28;20172;-83
2022/03/27 08:01:14;;;;;;;34.30;25.23;;;10.30;99.90;;;;;;5044684;28;20191;-84
2022/03/27 08:03:41;;;;;;;32.57;25.80;;;10.50;99.90;;;;;;5042249;28;20222;-84
2022/03/27 08:06:07;;;;;;;32.70;24.47;;;10.40;99.90;;;;;;5100453;22;20230;-77
2022/03/27 08:08:33;;;;;;;34.20;25.07;;;10.40;99.90;;;;;;5079953;28;20198;-77
2022/03/27 08:10:59;;;;;;;32.40;25.07;;;10.50;99.90;;;;;;5080853;28;20171;-77
2022/03/27 08:13:25;;;;;;;32.30;24.63;;;10.50;99.90;;;;;;5081014;28;20167;-77
2022/03/27 08:15:51;;;;;;;27.60;23.30;;;10.60;99.90;;;;;;5081147;28;20187;-77
2022/03/27 08:18:16;;;;;;;33.00;24.03;;;10.60;99.90;;;;;;5080753;28;20179;-77
2022/03/27 08:20:42;;;;;;;32.60;24.63;;;10.60;99.90;;;;;;5082837;28;20651;-77
2022/03/27 08:23:08;;;;;;;28.37;23.53;;;10.70;99.90;;;;;;5080167;28;20181;-77
2022/03/27 08:28:20;;;;;;;27.93;23.07;;;10.80;99.90;;;;;;5080704;28;20201;-77
2022/03/27 08:30:46;;;;;;;33.93;23.27;;;10.80;99.90;;;;;;5080837;28;20167;-77
2022/03/27 08:33:13;;;;;;;30.53;23.80;;;10.90;99.90;;;;;;5081380;28;20171;-77
2022/03/27 08:35:41;;;;;;;33.17;23.63;;;10.90;99.90;;;;;;5079849;28;20219;-77
2022/03/27 08:38:15;;;;;;;27.90;23.17;;;11.10;99.90;;;;;;5080115;28;20266;-77
2022/03/27 08:40:43;;;;;;;29.23;22.97;;;11.10;99.90;;;;;;5082483;28;20234;-77
2022/03/27 08:43:10;;;;;;;27.87;22.80;;;11.20;99.90;;;;;;5079126;28;20175;-77
2022/03/27 08:45:36;;;;;;;29.77;24.03;;;11.20;99.90;;;;;;5080197;28;20677;-77
2022/03/27 08:48:01;;;;;;;27.73;23.67;;;11.30;99.90;;;;;;5081930;28;20281;-77
2022/03/27 08:51:06;;;;;;;29.57;22.87;;;11.30;99.90;;;;;;5082467;28;20166;-78
2022/03/27 08:53:53;;;;;;;28.10;22.33;;;11.40;99.90;;;;;;5070319;28;20181;-77
2022/03/27 08:56:18;;;;;;;26.90;22.03;;;11.50;99.90;;;;;;5083669;28;20283;-77
2022/03/27 08:58:45;;;;;;;29.77;22.47;;;11.60;99.90;;;;;;5083263;28;20550;-76
2022/03/27 09:01:11;;;;;;;28.70;22.33;;;11.60;99.90;;;;;;5081821;28;20171;-77
2022/03/27 09:03:37;;;;;;;32.80;22.97;;;11.70;99.90;;;;;;5081632;28;20175;-77
2022/03/27 09:06:05;;;;;;;29.77;22.83;;;11.70;99.90;;;;;;5078267;28;20211;-78
2022/03/27 09:08:31;;;;;;;28.33;22.57;;;11.80;99.90;;;;;;5080933;28;20191;-77
2022/03/27 09:10:57;;;;;;;28.17;22.33;;;11.80;99.90;;;;;;5082227;28;20253;-78
2022/03/27 09:13:23;;;;;;;26.60;21.53;;;11.90;99.90;;;;;;5080379;28;20270;-77
2022/03/27 09:16:04;;;;;;;30.77;22.57;;;12.00;99.90;;;;;;5082056;28;20194;-77
2022/03/27 09:18:55;;;;;;;28.63;22.07;;;12.10;99.90;;;;;;5080105;28;20174;-77
2022/03/27 09:21:23;;;;;;;29.03;22.30;;;12.00;99.90;;;;;;5080254;28;20171;-78
2022/03/27 09:23:58;;;;;;;28.93;21.50;;;12.00;99.90;;;;;;5080419;28;20179;-77
2022/03/27 09:26:24;;;;;;;30.03;21.70;;;12.10;99.90;;;;;;5081858;28;20245;-76
2022/03/27 09:28:55;;;;;;;30.37;22.07;;;12.20;99.90;;;;;;5080346;28;20206;-78
2022/03/27 09:31:28;;;;;;;28.77;20.90;;;12.10;99.90;;;;;;5078880;28;20155;-78
2022/03/27 09:33:55;;;;;;;28.97;21.33;;;12.10;99.90;;;;;;5078395;28;20218;-77
2022/03/27 09:36:37;;;;;;;27.20;21.13;;;12.10;99.90;;;;;;5080679;28;20187;-79
2022/03/27 09:39:04;;;;;;;29.90;21.77;;;12.20;99.90;;;;;;5078979;28;20167;-78
2022/03/27 09:41:38;;;;;;;27.17;20.07;;;12.30;99.90;;;;;;5077450;28;20174;-78
2022/03/27 09:44:08;;;;;;;23.50;19.33;;;12.30;99.90;;;;;;5079037;28;20543;-78
2022/03/27 09:47:03;;;;;;;28.90;20.13;;;12.40;99.90;;;;;;5078412;28;20174;-78
2022/03/27 09:49:31;;;;;;;26.27;17.87;;;12.60;99.90;;;;;;5079050;28;20618;-78
2022/03/27 09:52:05;;;;;;;25.40;18.57;;;12.60;65.50;;;;;;5080303;28;20173;-78
2022/03/27 09:54:54;;;;;;;28.87;19.60;;;12.60;98.00;;;;;;5080232;28;20198;-78
2022/03/27 09:57:29;;;;;;;29.77;19.20;;;12.60;7.50;;;;;;5078538;28;20159;-78
2022/03/27 09:59:57;;;;;;;31.03;19.60;;;12.60;1.00;;;;;;5080417;28;20150;-78
2022/03/27 10:02:26;;;;;;;28.33;19.77;;;12.50;31.20;;;;;;5079535;28;20175;-78
2022/03/27 10:05:00;;;;;;;29.07;19.03;;;12.70;99.90;;;;;;5079349;28;20210;-78
2022/03/27 10:07:32;;;;;;;32.23;19.87;;;12.80;68.80;;;;;;5079568;28;20202;-78
2022/03/27 10:09:57;;;;;;;31.20;19.73;;;12.80;1.00;;;;;;5080677;28;20163;-79
2022/03/27 10:12:29;;;;;;;30.27;19.70;;;12.80;1.00;;;;;;5081114;28;20206;-79
2022/03/27 10:14:59;;;;;;;29.83;20.10;;;12.90;1.00;;;;;;5078310;28;20183;-78
2022/03/27 10:17:27;;;;;;;34.17;20.50;;;13.00;99.90;;;;;;5078474;28;20641;-78
2022/03/27 10:19:57;;;;;;;29.03;19.80;;;13.20;1.00;;;;;;5079175;28;20179;-78
2022/03/27 10:22:27;;;;;;;28.90;19.77;;;13.30;1.00;;;;;;5079730;28;20171;-78
2022/03/27 10:24:56;;;;;;;30.20;20.33;;;13.30;1.00;;;;;;5077971;28;20260;-78
2022/03/27 10:27:22;;;;;;;28.37;19.20;;;13.40;99.90;;;;;;5079297;28;20195;-77
2022/03/27 10:29:48;;;;;;;27.60;20.20;;;13.40;99.90;;;;;;5074186;28;20266;-76
2022/03/27 10:32:14;;;;;;;27.70;20.57;;;13.40;99.90;;;;;;5072917;28;20205;-76
2022/03/27 10:35:03;;;;;;;31.63;21.13;;;13.40;1.00;;;;;;5074030;28;20186;-75
2022/03/27 10:37:34;;;;;;;29.73;20.67;;;13.30;99.90;;;;;;5042311;28;20530;-75
2022/03/27 10:40:26;;;;;;;32.50;21.93;;;13.30;1.00;;;;;;5074050;28;20591;-75
2022/03/27 10:43:00;;;;;;;30.70;22.50;;;13.30;99.90;;;;;;5074159;28;20216;-77
2022/03/27 10:45:25;;;;;;;33.60;22.40;;;13.40;1.00;;;;;;5072863;28;20199;-76
2022/03/27 10:48:12;;;;;;;33.73;23.80;;;13.40;1.00;;;;;;5073684;28;20237;-75
2022/03/27 10:51:04;;;;;;;31.50;22.00;;;13.40;99.90;;;;;;5071919;28;20174;-75
2022/03/27 10:53:29;;;;;;;30.93;21.03;;;13.30;77.70;;;;;;5071986;28;20232;-77
2022/03/27 10:55:57;;;;;;;28.57;20.17;;;13.40;90.50;;;;;;5073983;28;20191;-77
2022/03/27 10:58:37;;;;;;;30.57;21.40;;;13.40;1.00;;;;;;5074085;28;20182;-76
2022/03/27 11:01:29;;;;;;;28.17;19.63;;;13.40;99.90;;;;;;5074057;28;20201;-76
2022/03/27 11:04:12;;;;;;;30.57;19.70;;;13.50;99.90;;;;;;5074512;28;20229;-76
2022/03/27 11:06:43;;;;;;;33.73;21.90;;;13.50;99.90;;;;;;5074870;28;20179;-75
2022/03/27 11:09:13;;;;;;;32.00;21.60;;;13.60;99.90;;;;;;5075237;28;20747;-76
2022/03/27 11:11:39;;;;;;;28.50;19.67;;;13.60;99.90;;;;;;5074542;28;20178;-76
2022/03/27 11:14:06;;;;;;;29.47;20.67;;;13.70;1.00;;;;;;5076998;28;20273;-77
2022/03/27 11:16:37;;;;;;;30.83;20.40;;;13.70;99.90;;;;;;5077357;28;20175;-75
2022/03/27 11:19:04;;;;;;;31.30;20.27;;;13.70;99.90;;;;;;5076502;28;20166;-76
2022/03/27 11:21:29;;;;;;;29.53;20.27;;;13.80;1.00;;;;;;5078294;28;20185;-78
2022/03/27 11:24:04;;;;;;;29.37;19.37;;;13.90;41.50;;;;;;5082422;28;20179;-78
2022/03/27 11:26:29;;;;;;;30.40;19.30;;;13.90;1.00;;;;;;5081479;28;20189;-78
2022/03/27 11:29:04;;;;;;;27.03;19.17;;;13.90;1.00;;;;;;5083818;28;20203;-78
2022/03/27 11:31:37;;;;;;;26.80;17.83;;;14.00;1.00;;;;;;5081963;28;20220;-78
2022/03/27 11:34:09;;;;;;;29.67;19.77;;;14.10;1.00;;;;;;5083437;28;20202;-78
2022/03/27 11:36:36;;;;;;;27.00;18.90;;;14.00;99.90;;;;;;5081855;28;20193;-78
2022/03/27 11:39:09;;;;;;;27.97;19.43;;;14.10;1.00;;;;;;5082284;28;20179;-78
2022/03/27 11:41:44;;;;;;;28.57;19.27;;;14.10;1.00;;;;;;5084447;28;20175;-78
2022/03/27 11:44:24;;;;;;;26.40;19.17;;;14.20;99.90;;;;;;5084201;28;20197;-79
2022/03/27 11:46:57;;;;;;;26.53;18.90;;;14.30;1.00;;;;;;5082655;28;20240;-77
2022/03/27 11:49:36;;;;;;;27.30;18.47;;;14.40;1.00;;;;;;5084488;28;20199;-78
2022/03/27 11:52:06;;;;;;;26.93;17.57;;;14.40;99.90;;;;;;5082624;28;20191;-78
2022/03/27 11:54:31;;;;;;;27.40;18.07;;;14.40;99.90;;;;;;5081993;28;20186;-77
2022/03/27 11:56:59;;;;;;;25.60;18.20;;;14.40;1.00;;;;;;5079654;28;20210;-78
2022/03/27 11:59:28;;;;;;;30.30;18.53;;;14.40;1.00;;;;;;5080583;28;20668;-78
2022/03/27 12:01:57;;;;;;;27.70;18.60;;;14.50;99.90;;;;;;5078969;28;20183;-77
2022/03/27 12:04:23;;;;;;;26.00;18.43;;;14.60;1.00;;;;;;5085018;28;20171;-78
2022/03/27 12:07:00;;;;;;;24.23;18.33;;;14.60;99.90;;;;;;5083910;28;20191;-77
2022/03/27 12:09:31;;;;;;;23.37;17.13;;;14.70;1.00;;;;;;5084581;28;20264;-78
2022/03/27 12:12:11;;;;;;;24.67;18.10;;;14.70;1.00;;;;;;5083678;28;20205;-78
2022/03/27 12:14:57;;;;;;;27.20;18.43;;;14.80;1.00;;;;;;5086392;28;20198;-78
2022/03/27 12:17:25;;;;;;;25.17;17.63;;;14.80;99.90;;;;;;5085111;28;20186;-77
2022/03/27 12:20:08;;;;;;;23.00;17.13;;;14.90;1.00;;;;;;5087622;28;20251;-78
2022/03/27 12:22:56;;;;;;;20.77;16.37;;;14.90;1.00;;;;;;5087970;28;20190;-78
2022/03/27 12:25:25;;;;;;;24.03;17.43;;;14.90;99.90;;;;;;5088240;28;20191;-79
2022/03/27 12:30:48;;;;;;;24.30;17.77;;;15.00;1.00;;;;;;5087250;28;20159;-80
2022/03/27 12:33:14;;;;;;;23.27;17.27;;;15.10;34.40;;;;;;5087012;28;20572;-79
2022/03/27 12:35:39;;;;;;;22.57;16.00;;;15.10;1.00;;;;;;5086535;28;20197;-78
2022/03/27 12:38:05;;;;;;;23.30;15.90;;;15.20;40.00;;;;;;5087485;28;20179;-77
2022/03/27 12:40:51;;;;;;;21.50;15.20;;;15.40;39.70;;;;;;5085438;28;20176;-78
2022/03/27 12:43:17;;;;;;;18.63;12.87;;;15.40;1.00;;;;;;5086252;28;20239;-78
2022/03/27 12:45:44;;;;;;;20.60;13.40;;;15.50;1.00;;;;;;5084860;28;20221;-77
2022/03/27 12:48:19;;;;;;;17.87;13.07;;;15.50;1.00;;;;;;5084135;28;20195;-78
2022/03/27 12:50:47;;;;;;;17.77;13.07;;;15.60;1.00;;;;;;5084760;28;20581;-78
2022/03/27 12:53:27;;;;;;;21.20;13.63;;;15.60;1.00;;;;;;5085493;28;20217;-77
2022/03/27 12:56:00;;;;;;;18.93;13.07;;;15.60;1.00;;;;;;5084202;28;20190;-77